sensor_id;sensor_type;location;lat;lon;timestamp;P1;durP1;ratioP1;P2;durP2;ratioP2
64903;SDS011;51401;48.882;12.598;2024-01-15T00:02:08;28.42;;;12.98;;
64903;SDS011;51401;48.882;12.598;2024-01-15T00:04:37;29.88;;;14.88;;
64903;SDS011;51401;48.882;12.598;2024-01-15T00:07:03;27.27;;;14.00;;
64903;SDS011;51401;48.882;12.598;2024-01-15T00:09:29;27.23;;;13.40;;
64903;SDS011;51401;48.882;12.598;2024-01-15T00:11:54;29.60;;;14.48;;
64903;SDS011;51401;48.882;12.598;2024-01-15T00:14:19;24.50;;;13.32;;
64903;SDS011;51401;48.882;12.598;2024-01-15T00:16:45;27.15;;;13.05;;
64903;SDS011;51401;48.882;12.598;2024-01-15T00:19:11;26.35;;;12.57;;
64903;SDS011;51401;48.882;12.598;2024-01-15T00:21:36;30.63;;;13.65;;
64903;SDS011;51401;48.882;12.598;2024-01-15T00:24:02;29.02;;;13.10;;
64903;SDS011;51401;48.882;12.598;2024-01-15T00:26:27;29.35;;;14.15;;
64903;SDS011;51401;48.882;12.598;2024-01-15T00:28:52;28.10;;;13.95;;
64903;SDS011;51401;48.882;12.598;2024-01-15T00:31:18;25.10;;;14.18;;
64903;SDS011;51401;48.882;12.598;2024-01-15T00:33:43;27.58;;;14.80;;
64903;SDS011;51401;48.882;12.598;2024-01-15T00:36:08;31.65;;;13.57;;
64903;SDS011;51401;48.882;12.598;2024-01-15T00:38:33;27.77;;;13.60;;
64903;SDS011;51401;48.882;12.598;2024-01-15T00:40:59;30.35;;;13.57;;
64903;SDS011;51401;48.882;12.598;2024-01-15T00:43:24;30.30;;;14.02;;
64903;SDS011;51401;48.882;12.598;2024-01-15T00:45:49;25.45;;;13.20;;
64903;SDS011;51401;48.882;12.598;2024-01-15T00:48:15;30.13;;;13.85;;
64903;SDS011;51401;48.882;12.598;2024-01-15T00:50:40;36.00;;;15.40;;
64903;SDS011;51401;48.882;12.598;2024-01-15T00:53:05;27.33;;;13.70;;
64903;SDS011;51401;48.882;12.598;2024-01-15T00:55:30;28.30;;;14.88;;
64903;SDS011;51401;48.882;12.598;2024-01-15T00:57:56;26.45;;;14.80;;
64903;SDS011;51401;48.882;12.598;2024-01-15T01:00:22;31.92;;;13.93;;
64903;SDS011;51401;48.882;12.598;2024-01-15T01:02:47;30.00;;;14.43;;
64903;SDS011;51401;48.882;12.598;2024-01-15T01:05:12;31.58;;;15.98;;
64903;SDS011;51401;48.882;12.598;2024-01-15T01:07:38;31.73;;;16.00;;
64903;SDS011;51401;48.882;12.598;2024-01-15T01:10:03;32.65;;;16.00;;
64903;SDS011;51401;48.882;12.598;2024-01-15T01:12:29;30.38;;;14.50;;
64903;SDS011;51401;48.882;12.598;2024-01-15T01:14:55;29.45;;;15.63;;
64903;SDS011;51401;48.882;12.598;2024-01-15T01:17:20;26.08;;;13.95;;
64903;SDS011;51401;48.882;12.598;2024-01-15T01:19:46;25.23;;;13.25;;
64903;SDS011;51401;48.882;12.598;2024-01-15T01:22:11;29.38;;;14.77;;
64903;SDS011;51401;48.882;12.598;2024-01-15T01:24:36;27.88;;;13.88;;
64903;SDS011;51401;48.882;12.598;2024-01-15T01:27:02;25.52;;;14.15;;
64903;SDS011;51401;48.882;12.598;2024-01-15T01:29:27;33.40;;;14.35;;
64903;SDS011;51401;48.882;12.598;2024-01-15T01:31:52;28.35;;;15.98;;
64903;SDS011;51401;48.882;12.598;2024-01-15T01:34:17;31.27;;;16.05;;
64903;SDS011;51401;48.882;12.598;2024-01-15T01:36:43;31.55;;;16.20;;
64903;SDS011;51401;48.882;12.598;2024-01-15T01:39:08;25.17;;;13.15;;
64903;SDS011;51401;48.882;12.598;2024-01-15T01:41:34;28.38;;;15.77;;
64903;SDS011;51401;48.882;12.598;2024-01-15T01:44:00;31.58;;;15.88;;
64903;SDS011;51401;48.882;12.598;2024-01-15T01:46:25;28.58;;;13.95;;
64903;SDS011;51401;48.882;12.598;2024-01-15T01:48:53;29.85;;;14.77;;
64903;SDS011;51401;48.882;12.598;2024-01-15T01:51:20;31.38;;;14.23;;
64903;SDS011;51401;48.882;12.598;2024-01-15T01:53:47;29.95;;;13.88;;
64903;SDS011;51401;48.882;12.598;2024-01-15T01:56:14;25.25;;;12.93;;
64903;SDS011;51401;48.882;12.598;2024-01-15T01:58:39;27.65;;;14.20;;
64903;SDS011;51401;48.882;12.598;2024-01-15T02:01:05;28.60;;;13.90;;
64903;SDS011;51401;48.882;12.598;2024-01-15T02:03:31;26.40;;;13.18;;
64903;SDS011;51401;48.882;12.598;2024-01-15T02:05:58;29.48;;;12.88;;
64903;SDS011;51401;48.882;12.598;2024-01-15T02:08:25;24.25;;;13.55;;
64903;SDS011;51401;48.882;12.598;2024-01-15T02:10:51;23.55;;;12.52;;
64903;SDS011;51401;48.882;12.598;2024-01-15T02:13:17;28.40;;;14.23;;
64903;SDS011;51401;48.882;12.598;2024-01-15T02:15:43;27.85;;;12.82;;
64903;SDS011;51401;48.882;12.598;2024-01-15T02:18:08;21.70;;;12.55;;
64903;SDS011;51401;48.882;12.598;2024-01-15T02:20:34;24.02;;;12.73;;
64903;SDS011;51401;48.882;12.598;2024-01-15T02:25:41;26.70;;;12.35;;
64903;SDS011;51401;48.882;12.598;2024-01-15T02:28:09;20.75;;;11.95;;
64903;SDS011;51401;48.882;12.598;2024-01-15T02:30:39;27.38;;;13.73;;
64903;SDS011;51401;48.882;12.598;2024-01-15T02:33:06;28.35;;;12.55;;
64903;SDS011;51401;48.882;12.598;2024-01-15T02:35:32;24.42;;;11.55;;
64903;SDS011;51401;48.882;12.598;2024-01-15T02:37:58;30.13;;;13.52;;
64903;SDS011;51401;48.882;12.598;2024-01-15T02:40:24;25.48;;;13.38;;
64903;SDS011;51401;48.882;12.598;2024-01-15T02:42:49;20.05;;;11.77;;
64903;SDS011;51401;48.882;12.598;2024-01-15T02:45:14;25.30;;;12.80;;
64903;SDS011;51401;48.882;12.598;2024-01-15T02:47:39;20.55;;;11.50;;
64903;SDS011;51401;48.882;12.598;2024-01-15T02:50:05;24.08;;;12.02;;
64903;SDS011;51401;48.882;12.598;2024-01-15T02:52:31;25.05;;;10.75;;
64903;SDS011;51401;48.882;12.598;2024-01-15T02:54:56;29.38;;;11.98;;
64903;SDS011;51401;48.882;12.598;2024-01-15T02:57:21;19.42;;;9.40;;
64903;SDS011;51401;48.882;12.598;2024-01-15T02:59:46;21.83;;;10.52;;
64903;SDS011;51401;48.882;12.598;2024-01-15T03:02:12;27.13;;;11.18;;
64903;SDS011;51401;48.882;12.598;2024-01-15T03:04:37;31.23;;;12.88;;
64903;SDS011;51401;48.882;12.598;2024-01-15T03:07:03;22.98;;;10.68;;
64903;SDS011;51401;48.882;12.598;2024-01-15T03:09:28;22.75;;;10.07;;
64903;SDS011;51401;48.882;12.598;2024-01-15T03:11:54;22.67;;;10.43;;
64903;SDS011;51401;48.882;12.598;2024-01-15T03:14:19;28.08;;;12.90;;
64903;SDS011;51401;48.882;12.598;2024-01-15T03:16:45;25.70;;;12.50;;
64903;SDS011;51401;48.882;12.598;2024-01-15T03:19:10;26.52;;;11.07;;
64903;SDS011;51401;48.882;12.598;2024-01-15T03:21:36;25.13;;;11.82;;
64903;SDS011;51401;48.882;12.598;2024-01-15T03:24:01;22.55;;;10.38;;
64903;SDS011;51401;48.882;12.598;2024-01-15T03:26:26;25.85;;;10.40;;
64903;SDS011;51401;48.882;12.598;2024-01-15T03:28:52;19.90;;;9.57;;
64903;SDS011;51401;48.882;12.598;2024-01-15T03:31:17;19.23;;;9.35;;
64903;SDS011;51401;48.882;12.598;2024-01-15T03:33:42;22.02;;;9.82;;
64903;SDS011;51401;48.882;12.598;2024-01-15T03:36:08;27.95;;;12.38;;
64903;SDS011;51401;48.882;12.598;2024-01-15T03:38:33;23.65;;;10.43;;
64903;SDS011;51401;48.882;12.598;2024-01-15T03:40:59;24.25;;;10.57;;
64903;SDS011;51401;48.882;12.598;2024-01-15T03:43:24;24.15;;;9.32;;
64903;SDS011;51401;48.882;12.598;2024-01-15T03:45:49;21.33;;;9.88;;
64903;SDS011;51401;48.882;12.598;2024-01-15T03:48:14;19.65;;;7.75;;
64903;SDS011;51401;48.882;12.598;2024-01-15T03:50:40;19.27;;;10.05;;
64903;SDS011;51401;48.882;12.598;2024-01-15T03:53:05;20.60;;;9.20;;
64903;SDS011;51401;48.882;12.598;2024-01-15T03:55:30;20.98;;;9.38;;
64903;SDS011;51401;48.882;12.598;2024-01-15T03:57:56;17.20;;;8.27;;
64903;SDS011;51401;48.882;12.598;2024-01-15T04:00:22;21.33;;;9.25;;
64903;SDS011;51401;48.882;12.598;2024-01-15T04:02:47;18.92;;;8.88;;
64903;SDS011;51401;48.882;12.598;2024-01-15T04:05:12;20.63;;;8.48;;
64903;SDS011;51401;48.882;12.598;2024-01-15T04:07:37;19.20;;;9.27;;
64903;SDS011;51401;48.882;12.598;2024-01-15T04:10:03;18.27;;;8.38;;
64903;SDS011;51401;48.882;12.598;2024-01-15T04:12:28;16.05;;;7.95;;
64903;SDS011;51401;48.882;12.598;2024-01-15T04:14:54;23.40;;;9.00;;
64903;SDS011;51401;48.882;12.598;2024-01-15T04:17:19;19.90;;;8.70;;
64903;SDS011;51401;48.882;12.598;2024-01-15T04:19:44;21.02;;;9.10;;
64903;SDS011;51401;48.882;12.598;2024-01-15T04:22:10;18.10;;;8.68;;
64903;SDS011;51401;48.882;12.598;2024-01-15T04:24:35;16.83;;;8.43;;
64903;SDS011;51401;48.882;12.598;2024-01-15T04:27:00;17.40;;;7.28;;
64903;SDS011;51401;48.882;12.598;2024-01-15T04:29:26;17.02;;;8.70;;
64903;SDS011;51401;48.882;12.598;2024-01-15T04:31:51;18.70;;;8.23;;
64903;SDS011;51401;48.882;12.598;2024-01-15T04:34:18;15.00;;;7.20;;
64903;SDS011;51401;48.882;12.598;2024-01-15T04:36:43;18.10;;;7.32;;
64903;SDS011;51401;48.882;12.598;2024-01-15T04:39:08;14.50;;;6.45;;
64903;SDS011;51401;48.882;12.598;2024-01-15T04:41:34;19.33;;;7.88;;
64903;SDS011;51401;48.882;12.598;2024-01-15T04:43:59;15.57;;;7.25;;
64903;SDS011;51401;48.882;12.598;2024-01-15T04:46:26;14.80;;;7.03;;
64903;SDS011;51401;48.882;12.598;2024-01-15T04:48:51;17.60;;;8.23;;
64903;SDS011;51401;48.882;12.598;2024-01-15T04:51:16;16.83;;;8.13;;
64903;SDS011;51401;48.882;12.598;2024-01-15T04:53:42;16.83;;;7.03;;
64903;SDS011;51401;48.882;12.598;2024-01-15T04:56:07;15.90;;;7.47;;
64903;SDS011;51401;48.882;12.598;2024-01-15T04:58:35;19.58;;;8.88;;
64903;SDS011;51401;48.882;12.598;2024-01-15T05:01:00;16.63;;;8.60;;
64903;SDS011;51401;48.882;12.598;2024-01-15T05:03:25;16.02;;;7.82;;
64903;SDS011;51401;48.882;12.598;2024-01-15T05:05:51;18.58;;;8.30;;
64903;SDS011;51401;48.882;12.598;2024-01-15T05:08:16;15.80;;;7.85;;
64903;SDS011;51401;48.882;12.598;2024-01-15T05:10:41;18.80;;;7.72;;
64903;SDS011;51401;48.882;12.598;2024-01-15T05:13:07;17.73;;;8.98;;
64903;SDS011;51401;48.882;12.598;2024-01-15T05:15:32;18.25;;;8.20;;
64903;SDS011;51401;48.882;12.598;2024-01-15T05:17:57;16.88;;;8.23;;
64903;SDS011;51401;48.882;12.598;2024-01-15T05:20:22;15.90;;;6.80;;
64903;SDS011;51401;48.882;12.598;2024-01-15T05:22:48;22.15;;;8.57;;
64903;SDS011;51401;48.882;12.598;2024-01-15T05:25:13;14.88;;;8.02;;
64903;SDS011;51401;48.882;12.598;2024-01-15T05:27:39;16.95;;;8.13;;
64903;SDS011;51401;48.882;12.598;2024-01-15T05:30:04;17.17;;;8.27;;
64903;SDS011;51401;48.882;12.598;2024-01-15T05:32:30;19.48;;;9.32;;
64903;SDS011;51401;48.882;12.598;2024-01-15T05:34:56;18.40;;;8.85;;
64903;SDS011;51401;48.882;12.598;2024-01-15T05:37:22;15.63;;;8.80;;
64903;SDS011;51401;48.882;12.598;2024-01-15T05:39:47;16.77;;;8.30;;
64903;SDS011;51401;48.882;12.598;2024-01-15T05:42:12;17.65;;;8.30;;
64903;SDS011;51401;48.882;12.598;2024-01-15T05:44:38;20.65;;;8.93;;
64903;SDS011;51401;48.882;12.598;2024-01-15T05:47:03;19.73;;;8.35;;
64903;SDS011;51401;48.882;12.598;2024-01-15T05:49:29;17.00;;;8.63;;
64903;SDS011;51401;48.882;12.598;2024-01-15T05:51:54;20.02;;;8.82;;
64903;SDS011;51401;48.882;12.598;2024-01-15T05:54:19;17.13;;;8.68;;
64903;SDS011;51401;48.882;12.598;2024-01-15T05:56:45;19.58;;;8.65;;
64903;SDS011;51401;48.882;12.598;2024-01-15T05:59:10;16.02;;;7.75;;
64903;SDS011;51401;48.882;12.598;2024-01-15T06:01:35;17.70;;;8.70;;
64903;SDS011;51401;48.882;12.598;2024-01-15T06:04:01;16.70;;;8.32;;
64903;SDS011;51401;48.882;12.598;2024-01-15T06:06:26;13.93;;;7.82;;
64903;SDS011;51401;48.882;12.598;2024-01-15T06:08:52;17.75;;;7.53;;
64903;SDS011;51401;48.882;12.598;2024-01-15T06:11:17;18.02;;;8.15;;
64903;SDS011;51401;48.882;12.598;2024-01-15T06:13:42;15.13;;;7.65;;
64903;SDS011;51401;48.882;12.598;2024-01-15T06:16:17;15.27;;;7.57;;
64903;SDS011;51401;48.882;12.598;2024-01-15T06:18:44;22.17;;;9.05;;
64903;SDS011;51401;48.882;12.598;2024-01-15T06:21:09;16.58;;;9.15;;
64903;SDS011;51401;48.882;12.598;2024-01-15T06:23:37;17.08;;;7.70;;
64903;SDS011;51401;48.882;12.598;2024-01-15T06:26:02;16.30;;;8.30;;
64903;SDS011;51401;48.882;12.598;2024-01-15T06:28:28;16.98;;;8.25;;
64903;SDS011;51401;48.882;12.598;2024-01-15T06:30:54;16.83;;;8.85;;
64903;SDS011;51401;48.882;12.598;2024-01-15T06:33:19;16.90;;;8.23;;
64903;SDS011;51401;48.882;12.598;2024-01-15T06:35:44;19.55;;;8.77;;
64903;SDS011;51401;48.882;12.598;2024-01-15T06:38:10;17.60;;;8.27;;
64903;SDS011;51401;48.882;12.598;2024-01-15T06:40:35;15.65;;;7.88;;
64903;SDS011;51401;48.882;12.598;2024-01-15T06:43:00;14.98;;;7.10;;
64903;SDS011;51401;48.882;12.598;2024-01-15T06:45:26;17.80;;;7.80;;
64903;SDS011;51401;48.882;12.598;2024-01-15T06:47:51;18.35;;;8.68;;
64903;SDS011;51401;48.882;12.598;2024-01-15T06:50:16;16.77;;;8.20;;
64903;SDS011;51401;48.882;12.598;2024-01-15T06:52:42;15.30;;;8.15;;
64903;SDS011;51401;48.882;12.598;2024-01-15T06:55:07;28.13;;;12.23;;
64903;SDS011;51401;48.882;12.598;2024-01-15T06:57:33;19.77;;;9.95;;
64903;SDS011;51401;48.882;12.598;2024-01-15T06:59:58;13.13;;;7.10;;
64903;SDS011;51401;48.882;12.598;2024-01-15T07:02:23;13.88;;;6.40;;
64903;SDS011;51401;48.882;12.598;2024-01-15T07:04:48;13.30;;;6.57;;
64903;SDS011;51401;48.882;12.598;2024-01-15T07:07:14;13.30;;;5.82;;
64903;SDS011;51401;48.882;12.598;2024-01-15T07:09:39;15.85;;;7.68;;
64903;SDS011;51401;48.882;12.598;2024-01-15T07:12:05;13.30;;;7.35;;
64903;SDS011;51401;48.882;12.598;2024-01-15T07:14:31;17.00;;;7.22;;
64903;SDS011;51401;48.882;12.598;2024-01-15T07:16:56;16.63;;;7.70;;
64903;SDS011;51401;48.882;12.598;2024-01-15T07:19:21;12.40;;;7.40;;
64903;SDS011;51401;48.882;12.598;2024-01-15T07:21:46;22.88;;;10.55;;
64903;SDS011;51401;48.882;12.598;2024-01-15T07:24:12;14.02;;;7.35;;
64903;SDS011;51401;48.882;12.598;2024-01-15T07:26:37;12.32;;;6.32;;
64903;SDS011;51401;48.882;12.598;2024-01-15T07:29:02;16.63;;;7.57;;
64903;SDS011;51401;48.882;12.598;2024-01-15T07:31:28;15.60;;;7.43;;
64903;SDS011;51401;48.882;12.598;2024-01-15T07:33:53;13.00;;;7.32;;
64903;SDS011;51401;48.882;12.598;2024-01-15T07:36:19;17.02;;;8.77;;
64903;SDS011;51401;48.882;12.598;2024-01-15T07:38:44;17.42;;;5.80;;
64903;SDS011;51401;48.882;12.598;2024-01-15T07:41:09;12.68;;;6.97;;
64903;SDS011;51401;48.882;12.598;2024-01-15T07:43:34;13.43;;;7.45;;
64903;SDS011;51401;48.882;12.598;2024-01-15T07:46:00;11.18;;;6.55;;
64903;SDS011;51401;48.882;12.598;2024-01-15T07:48:25;11.13;;;5.75;;
64903;SDS011;51401;48.882;12.598;2024-01-15T07:50:51;12.43;;;5.60;;
64903;SDS011;51401;48.882;12.598;2024-01-15T07:53:16;12.57;;;6.63;;
64903;SDS011;51401;48.882;12.598;2024-01-15T07:55:41;12.70;;;6.38;;
64903;SDS011;51401;48.882;12.598;2024-01-15T07:58:07;11.82;;;5.88;;
64903;SDS011;51401;48.882;12.598;2024-01-15T08:00:32;10.88;;;5.82;;
64903;SDS011;51401;48.882;12.598;2024-01-15T08:02:57;9.93;;;5.63;;
64903;SDS011;51401;48.882;12.598;2024-01-15T08:05:22;9.98;;;5.15;;
64903;SDS011;51401;48.882;12.598;2024-01-15T08:07:48;11.07;;;5.53;;
64903;SDS011;51401;48.882;12.598;2024-01-15T08:10:14;11.20;;;5.15;;
64903;SDS011;51401;48.882;12.598;2024-01-15T08:12:39;11.38;;;4.78;;
64903;SDS011;51401;48.882;12.598;2024-01-15T08:15:04;9.43;;;4.75;;
64903;SDS011;51401;48.882;12.598;2024-01-15T08:17:30;7.82;;;4.43;;
64903;SDS011;51401;48.882;12.598;2024-01-15T08:19:57;17.65;;;6.10;;
64903;SDS011;51401;48.882;12.598;2024-01-15T08:22:22;19.17;;;6.43;;
64903;SDS011;51401;48.882;12.598;2024-01-15T08:24:48;13.45;;;5.55;;
64903;SDS011;51401;48.882;12.598;2024-01-15T08:27:13;11.35;;;5.60;;
64903;SDS011;51401;48.882;12.598;2024-01-15T08:29:39;13.68;;;4.93;;
64903;SDS011;51401;48.882;12.598;2024-01-15T08:32:04;17.50;;;5.55;;
64903;SDS011;51401;48.882;12.598;2024-01-15T08:34:30;14.68;;;5.38;;
64903;SDS011;51401;48.882;12.598;2024-01-15T08:36:56;13.50;;;5.25;;
64903;SDS011;51401;48.882;12.598;2024-01-15T08:39:21;11.93;;;5.20;;
64903;SDS011;51401;48.882;12.598;2024-01-15T08:41:46;7.82;;;4.30;;
64903;SDS011;51401;48.882;12.598;2024-01-15T08:44:12;10.50;;;4.35;;
64903;SDS011;51401;48.882;12.598;2024-01-15T08:46:37;8.57;;;4.80;;
64903;SDS011;51401;48.882;12.598;2024-01-15T08:49:02;8.63;;;4.35;;
64903;SDS011;51401;48.882;12.598;2024-01-15T08:51:28;16.23;;;5.47;;
64903;SDS011;51401;48.882;12.598;2024-01-15T08:53:54;11.65;;;4.40;;
64903;SDS011;51401;48.882;12.598;2024-01-15T08:56:21;9.07;;;3.72;;
64903;SDS011;51401;48.882;12.598;2024-01-15T08:58:47;9.60;;;4.65;;
64903;SDS011;51401;48.882;12.598;2024-01-15T09:01:12;8.57;;;4.57;;
64903;SDS011;51401;48.882;12.598;2024-01-15T09:03:37;5.70;;;3.88;;
64903;SDS011;51401;48.882;12.598;2024-01-15T09:06:02;7.22;;;4.45;;
64903;SDS011;51401;48.882;12.598;2024-01-15T09:08:28;8.40;;;4.20;;
64903;SDS011;51401;48.882;12.598;2024-01-15T09:10:53;6.90;;;3.75;;
64903;SDS011;51401;48.882;12.598;2024-01-15T09:13:19;8.77;;;4.47;;
64903;SDS011;51401;48.882;12.598;2024-01-15T09:15:44;8.20;;;4.30;;
64903;SDS011;51401;48.882;12.598;2024-01-15T09:18:09;6.47;;;3.40;;
64903;SDS011;51401;48.882;12.598;2024-01-15T09:20:35;6.72;;;4.10;;
64903;SDS011;51401;48.882;12.598;2024-01-15T09:23:00;10.15;;;4.15;;
64903;SDS011;51401;48.882;12.598;2024-01-15T09:25:26;7.68;;;4.35;;
64903;SDS011;51401;48.882;12.598;2024-01-15T09:27:51;5.30;;;3.33;;
64903;SDS011;51401;48.882;12.598;2024-01-15T09:30:16;8.30;;;4.25;;
64903;SDS011;51401;48.882;12.598;2024-01-15T09:32:42;8.13;;;3.72;;
64903;SDS011;51401;48.882;12.598;2024-01-15T09:35:07;7.85;;;4.28;;
64903;SDS011;51401;48.882;12.598;2024-01-15T09:37:33;7.63;;;3.85;;
64903;SDS011;51401;48.882;12.598;2024-01-15T09:39:59;6.82;;;3.63;;
64903;SDS011;51401;48.882;12.598;2024-01-15T09:42:24;6.85;;;3.85;;
64903;SDS011;51401;48.882;12.598;2024-01-15T09:44:50;5.63;;;3.20;;
64903;SDS011;51401;48.882;12.598;2024-01-15T09:47:16;8.25;;;4.32;;
64903;SDS011;51401;48.882;12.598;2024-01-15T09:49:43;6.00;;;4.07;;
64903;SDS011;51401;48.882;12.598;2024-01-15T09:52:09;8.00;;;3.88;;
64903;SDS011;51401;48.882;12.598;2024-01-15T09:54:36;8.30;;;4.40;;
64903;SDS011;51401;48.882;12.598;2024-01-15T09:57:01;6.05;;;3.83;;
64903;SDS011;51401;48.882;12.598;2024-01-15T09:59:27;7.53;;;3.60;;
64903;SDS011;51401;48.882;12.598;2024-01-15T10:01:53;5.50;;;3.45;;
64903;SDS011;51401;48.882;12.598;2024-01-15T10:04:19;9.10;;;4.93;;
64903;SDS011;51401;48.882;12.598;2024-01-15T10:06:44;6.97;;;3.78;;
64903;SDS011;51401;48.882;12.598;2024-01-15T10:09:13;5.97;;;3.75;;
64903;SDS011;51401;48.882;12.598;2024-01-15T10:11:42;6.13;;;3.65;;
64903;SDS011;51401;48.882;12.598;2024-01-15T10:14:08;6.45;;;3.67;;
64903;SDS011;51401;48.882;12.598;2024-01-15T10:16:37;5.78;;;3.67;;
64903;SDS011;51401;48.882;12.598;2024-01-15T10:19:02;6.43;;;3.42;;
64903;SDS011;51401;48.882;12.598;2024-01-15T10:21:28;7.35;;;3.42;;
64903;SDS011;51401;48.882;12.598;2024-01-15T10:23:53;5.75;;;3.38;;
64903;SDS011;51401;48.882;12.598;2024-01-15T10:26:19;6.32;;;3.42;;
64903;SDS011;51401;48.882;12.598;2024-01-15T10:28:50;6.45;;;3.42;;
64903;SDS011;51401;48.882;12.598;2024-01-15T10:31:16;6.47;;;3.60;;
64903;SDS011;51401;48.882;12.598;2024-01-15T10:33:42;6.20;;;3.70;;
64903;SDS011;51401;48.882;12.598;2024-01-15T10:36:07;6.60;;;3.40;;
64903;SDS011;51401;48.882;12.598;2024-01-15T10:38:34;5.95;;;3.85;;
64903;SDS011;51401;48.882;12.598;2024-01-15T10:41:01;7.15;;;3.60;;
64903;SDS011;51401;48.882;12.598;2024-01-15T10:43:26;5.28;;;3.10;;
64903;SDS011;51401;48.882;12.598;2024-01-15T10:45:52;6.97;;;3.67;;
64903;SDS011;51401;48.882;12.598;2024-01-15T10:48:17;5.88;;;3.33;;
64903;SDS011;51401;48.882;12.598;2024-01-15T10:50:44;7.78;;;3.60;;
64903;SDS011;51401;48.882;12.598;2024-01-15T10:53:11;7.88;;;3.53;;
64903;SDS011;51401;48.882;12.598;2024-01-15T10:55:39;6.88;;;3.83;;
64903;SDS011;51401;48.882;12.598;2024-01-15T10:58:06;7.78;;;3.88;;
64903;SDS011;51401;48.882;12.598;2024-01-15T11:00:33;6.30;;;3.40;;
64903;SDS011;51401;48.882;12.598;2024-01-15T11:03:00;8.65;;;3.72;;
64903;SDS011;51401;48.882;12.598;2024-01-15T11:05:27;7.03;;;4.18;;
64903;SDS011;51401;48.882;12.598;2024-01-15T11:07:55;5.97;;;3.65;;
64903;SDS011;51401;48.882;12.598;2024-01-15T11:15:56;7.45;;;3.70;;
64903;SDS011;51401;48.882;12.598;2024-01-15T11:18:22;5.22;;;3.65;;
64903;SDS011;51401;48.882;12.598;2024-01-15T11:23:44;6.45;;;3.58;;
64903;SDS011;51401;48.882;12.598;2024-01-15T11:28:55;5.72;;;3.28;;
64903;SDS011;51401;48.882;12.598;2024-01-15T11:31:28;5.47;;;3.33;;
64903;SDS011;51401;48.882;12.598;2024-01-15T11:33:54;5.28;;;3.28;;
64903;SDS011;51401;48.882;12.598;2024-01-15T11:36:21;6.93;;;3.45;;
64903;SDS011;51401;48.882;12.598;2024-01-15T11:38:47;5.03;;;3.30;;
64903;SDS011;51401;48.882;12.598;2024-01-15T11:41:13;5.32;;;2.92;;
64903;SDS011;51401;48.882;12.598;2024-01-15T11:43:42;3.92;;;2.75;;
64903;SDS011;51401;48.882;12.598;2024-01-15T11:46:11;5.07;;;3.00;;
64903;SDS011;51401;48.882;12.598;2024-01-15T11:48:43;6.32;;;3.25;;
64903;SDS011;51401;48.882;12.598;2024-01-15T11:51:12;4.95;;;3.10;;
64903;SDS011;51401;48.882;12.598;2024-01-15T11:53:47;5.25;;;3.22;;
64903;SDS011;51401;48.882;12.598;2024-01-15T11:56:16;6.40;;;3.50;;
64903;SDS011;51401;48.882;12.598;2024-01-15T11:58:43;5.22;;;3.38;;
64903;SDS011;51401;48.882;12.598;2024-01-15T12:01:09;5.95;;;3.58;;
64903;SDS011;51401;48.882;12.598;2024-01-15T12:03:35;5.68;;;3.70;;
64903;SDS011;51401;48.882;12.598;2024-01-15T12:06:01;5.63;;;2.88;;
64903;SDS011;51401;48.882;12.598;2024-01-15T12:08:26;5.50;;;3.58;;
64903;SDS011;51401;48.882;12.598;2024-01-15T12:10:52;4.43;;;2.90;;
64903;SDS011;51401;48.882;12.598;2024-01-15T12:13:18;5.60;;;3.17;;
64903;SDS011;51401;48.882;12.598;2024-01-15T12:15:44;5.68;;;3.17;;
64903;SDS011;51401;48.882;12.598;2024-01-15T12:18:14;4.60;;;2.70;;
64903;SDS011;51401;48.882;12.598;2024-01-15T12:20:41;6.25;;;3.38;;
64903;SDS011;51401;48.882;12.598;2024-01-15T12:23:07;5.22;;;2.97;;
64903;SDS011;51401;48.882;12.598;2024-01-15T12:25:33;6.32;;;2.92;;
64903;SDS011;51401;48.882;12.598;2024-01-15T12:27:59;5.00;;;2.90;;
64903;SDS011;51401;48.882;12.598;2024-01-15T12:30:28;8.23;;;4.20;;
64903;SDS011;51401;48.882;12.598;2024-01-15T12:32:56;6.10;;;2.85;;
64903;SDS011;51401;48.882;12.598;2024-01-15T12:35:23;6.28;;;3.42;;
64903;SDS011;51401;48.882;12.598;2024-01-15T12:37:49;5.45;;;2.50;;
64903;SDS011;51401;48.882;12.598;2024-01-15T12:40:18;4.60;;;3.17;;
64903;SDS011;51401;48.882;12.598;2024-01-15T12:42:44;9.52;;;3.45;;
64903;SDS011;51401;48.882;12.598;2024-01-15T12:45:10;5.65;;;3.38;;
64903;SDS011;51401;48.882;12.598;2024-01-15T12:47:37;6.18;;;3.45;;
64903;SDS011;51401;48.882;12.598;2024-01-15T12:50:05;6.93;;;3.45;;
64903;SDS011;51401;48.882;12.598;2024-01-15T12:52:32;7.70;;;3.63;;
64903;SDS011;51401;48.882;12.598;2024-01-15T12:54:57;6.30;;;3.20;;
64903;SDS011;51401;48.882;12.598;2024-01-15T12:57:22;8.88;;;3.70;;
64903;SDS011;51401;48.882;12.598;2024-01-15T12:59:48;5.32;;;3.38;;
64903;SDS011;51401;48.882;12.598;2024-01-15T13:02:14;5.97;;;3.30;;
64903;SDS011;51401;48.882;12.598;2024-01-15T13:04:40;6.97;;;3.45;;
64903;SDS011;51401;48.882;12.598;2024-01-15T13:07:06;7.30;;;3.78;;
64903;SDS011;51401;48.882;12.598;2024-01-15T13:09:32;4.70;;;3.13;;
64903;SDS011;51401;48.882;12.598;2024-01-15T13:11:58;7.95;;;3.17;;
64903;SDS011;51401;48.882;12.598;2024-01-15T13:14:23;4.47;;;3.10;;
64903;SDS011;51401;48.882;12.598;2024-01-15T13:16:48;5.20;;;3.42;;
64903;SDS011;51401;48.882;12.598;2024-01-15T13:19:14;3.95;;;2.53;;
64903;SDS011;51401;48.882;12.598;2024-01-15T13:21:42;7.07;;;2.47;;
64903;SDS011;51401;48.882;12.598;2024-01-15T13:24:07;5.82;;;2.47;;
64903;SDS011;51401;48.882;12.598;2024-01-15T13:26:33;4.50;;;2.30;;
64903;SDS011;51401;48.882;12.598;2024-01-15T13:28:59;4.20;;;2.70;;
64903;SDS011;51401;48.882;12.598;2024-01-15T13:31:25;4.65;;;3.13;;
64903;SDS011;51401;48.882;12.598;2024-01-15T13:33:51;4.78;;;2.78;;
64903;SDS011;51401;48.882;12.598;2024-01-15T13:36:16;4.63;;;2.92;;
64903;SDS011;51401;48.882;12.598;2024-01-15T13:38:41;4.78;;;2.92;;
64903;SDS011;51401;48.882;12.598;2024-01-15T13:41:07;3.70;;;2.47;;
64903;SDS011;51401;48.882;12.598;2024-01-15T13:43:32;5.03;;;2.90;;
64903;SDS011;51401;48.882;12.598;2024-01-15T13:46:00;7.25;;;2.55;;
64903;SDS011;51401;48.882;12.598;2024-01-15T13:48:29;5.20;;;2.92;;
64903;SDS011;51401;48.882;12.598;2024-01-15T13:50:55;6.30;;;3.00;;
64903;SDS011;51401;48.882;12.598;2024-01-15T13:53:20;5.43;;;2.70;;
64903;SDS011;51401;48.882;12.598;2024-01-15T13:55:45;4.53;;;2.55;;
64903;SDS011;51401;48.882;12.598;2024-01-15T13:58:11;7.68;;;3.08;;
64903;SDS011;51401;48.882;12.598;2024-01-15T14:00:37;5.78;;;2.97;;
64903;SDS011;51401;48.882;12.598;2024-01-15T14:03:04;5.07;;;3.13;;
64903;SDS011;51401;48.882;12.598;2024-01-15T14:05:30;5.93;;;3.00;;
64903;SDS011;51401;48.882;12.598;2024-01-15T14:07:55;6.22;;;2.95;;
64903;SDS011;51401;48.882;12.598;2024-01-15T14:10:20;5.15;;;3.05;;
64903;SDS011;51401;48.882;12.598;2024-01-15T14:12:46;5.25;;;2.83;;
64903;SDS011;51401;48.882;12.598;2024-01-15T14:15:11;3.58;;;2.78;;
64903;SDS011;51401;48.882;12.598;2024-01-15T14:17:37;3.88;;;2.60;;
64903;SDS011;51401;48.882;12.598;2024-01-15T14:20:04;5.43;;;2.85;;
64903;SDS011;51401;48.882;12.598;2024-01-15T14:22:30;5.20;;;2.70;;
64903;SDS011;51401;48.882;12.598;2024-01-15T14:24:55;6.03;;;3.00;;
64903;SDS011;51401;48.882;12.598;2024-01-15T14:27:21;5.28;;;3.15;;
64903;SDS011;51401;48.882;12.598;2024-01-15T14:29:46;5.90;;;3.40;;